Time;durP1;ratioP1;P1;durP2;ratioP2;P2;SDS_P1;SDS_P2;PMS_P1;PMS_P2;Temp;Humidity;BMP_temperature;BMP_pressure;BME280_temperature;BME280_humidity;BME280_pressure;Samples;Min_cycle;Max_cycle;Signal;HPM_P1;HPM_P2
2024/03/05 00:01:31;;;;;;;;;;;6.10;92.00;;;;;;5021521;28;19998;-73
2024/03/05 00:03:57;;;;;;;;;;;6.10;91.80;;;;;;5021223;28;20043;-75
2024/03/05 00:06:23;;;;;;;;;;;6.10;91.80;;;;;;5021672;28;20036;-75
2024/03/05 00:08:49;;;;;;;;;;;6.00;92.00;;;;;;5021494;28;20048;-74
2024/03/05 00:11:14;;;;;;;;;;;6.10;92.00;;;;;;5021230;28;20509;-75
2024/03/05 00:13:40;;;;;;;;;;;6.10;92.10;;;;;;5021894;28;19993;-73
2024/03/05 00:16:06;;;;;;;;;;;6.20;91.80;;;;;;5021557;28;20001;-75
2024/03/05 00:18:31;;;;;;;;;;;6.20;91.80;;;;;;5006676;28;20022;-75
2024/03/05 00:20:57;;;;;;;;;;;6.30;91.80;;;;;;5026496;28;19989;-78
2024/03/05 00:23:22;;;;;;;;;;;6.30;91.80;;;;;;5025677;28;20019;-76
2024/03/05 00:25:48;;;;;;;;;;;6.40;91.90;;;;;;5007344;28;20536;-76
2024/03/05 00:28:14;;;;;;;;;;;6.30;92.10;;;;;;5025270;28;20088;-74
2024/03/05 00:30:39;;;;;;;;;;;6.40;92.10;;;;;;5026041;28;19986;-74
2024/03/05 00:33:06;;;;;;;;;;;6.30;92.30;;;;;;5025519;28;19993;-74
2024/03/05 00:35:31;;;;;;;;;;;6.30;92.30;;;;;;5025783;28;19994;-74
2024/03/05 00:37:57;;;;;;;;;;;6.30;92.40;;;;;;5025274;28;20009;-75
2024/03/05 00:40:22;;;;;;;;;;;6.30;92.50;;;;;;5025371;28;19997;-74
2024/03/05 00:42:48;;;;;;;;;;;6.20;92.70;;;;;;5025303;28;20476;-74
2024/03/05 00:45:17;;;;;;;;;;;6.20;92.90;;;;;;5025290;28;20065;-75
2024/03/05 00:47:43;;;;;;;;;;;6.10;93.20;;;;;;5007424;28;20519;-74
2024/03/05 00:50:12;;;;;;;;;;;6.20;93.10;;;;;;5024589;28;19990;-74
2024/03/05 00:52:38;;;;;;;;;;;6.30;93.10;;;;;;5025355;28;20051;-73
2024/03/05 00:55:07;;;;;;;;;;;6.00;93.60;;;;;;5024745;28;19998;-73
2024/03/05 00:57:36;;;;;;;;;;;5.80;93.90;;;;;;5016467;28;20509;-74
2024/03/05 01:00:02;;;;;;;;;;;5.90;94.00;;;;;;5025258;28;20250;-74
2024/03/05 01:02:28;;;;;;;;;;;6.00;93.90;;;;;;5024307;28;19990;-73
2024/03/05 01:04:53;;;;;;;;;;;5.90;94.20;;;;;;5006721;28;20339;-77
2024/03/05 01:07:19;;;;;;;;;;;6.10;94.10;;;;;;5006477;28;20477;-73
2024/03/05 01:09:44;;;;;;;;;;;6.00;94.10;;;;;;5023592;28;20044;-74
2024/03/05 01:12:10;;;;;;;;;;;6.10;94.30;;;;;;5024472;28;19997;-74
2024/03/05 01:14:36;;;;;;;;;;;6.10;94.30;;;;;;5024558;28;19993;-78
2024/03/05 01:17:04;;;;;;;;;;;6.20;94.40;;;;;;5024038;28;20525;-75
2024/03/05 01:19:30;;;;;;;;;;;6.20;94.40;;;;;;5024321;28;19997;-73
2024/03/05 01:21:58;;;;;;;;;;;6.10;94.60;;;;;;5024578;28;19996;-79
2024/03/05 01:24:25;;;;;;;;;;;6.30;94.40;;;;;;5024304;28;20001;-75
2024/03/05 01:26:51;;;;;;;;;;;6.30;94.30;;;;;;5017085;28;20013;-73
2024/03/05 01:29:17;;;;;;;;;;;6.30;94.30;;;;;;5023817;28;19990;-75
2024/03/05 01:31:44;;;;;;;;;;;6.30;94.40;;;;;;5024513;28;20398;-74
2024/03/05 01:34:10;;;;;;;;;;;6.30;94.60;;;;;;5024615;28;19994;-73
2024/03/05 01:36:36;;;;;;;;;;;6.20;94.50;;;;;;5005835;28;19990;-75
2024/03/05 01:39:03;;;;;;;;;;;6.20;94.80;;;;;;5024093;28;20473;-73
2024/03/05 01:41:28;;;;;;;;;;;6.20;94.80;;;;;;5017521;28;19990;-72
2024/03/05 01:43:54;;;;;;;;;;;6.10;96.10;;;;;;5024604;28;19996;-76
2024/03/05 01:46:19;;;;;;;;;;;6.10;96.10;;;;;;5022929;28;20025;-73
2024/03/05 01:48:45;;;;;;;;;;;6.20;96.50;;;;;;5023817;28;20120;-73
2024/03/05 01:51:13;;;;;;;;;;;6.20;96.10;;;;;;5023018;28;20002;-74
2024/03/05 01:53:38;;;;;;;;;;;6.10;96.20;;;;;;5023810;28;20072;-73
2024/03/05 01:56:04;;;;;;;;;;;6.10;96.30;;;;;;5023935;28;20487;-73
2024/03/05 01:58:30;;;;;;;;;;;6.10;96.20;;;;;;5023533;28;20048;-73
2024/03/05 02:00:57;;;;;;;;;;;6.20;96.40;;;;;;5023413;28;20943;-74
2024/03/05 02:03:23;;;;;;;;;;;6.20;96.30;;;;;;5023933;28;20017;-73
2024/03/05 02:05:50;;;;;;;;;;;6.20;96.20;;;;;;5023280;28;20541;-73
2024/03/05 02:08:16;;;;;;;;;;;6.20;96.20;;;;;;5005647;28;20947;-75
2024/03/05 02:10:42;;;;;;;;;;;6.30;96.10;;;;;;5023597;28;20037;-73
2024/03/05 02:13:10;;;;;;;;;;;6.30;96.10;;;;;;5020413;28;19990;-74
2024/03/05 02:15:36;;;;;;;;;;;6.30;96.20;;;;;;5023230;28;20432;-74
2024/03/05 02:18:01;;;;;;;;;;;6.10;96.60;;;;;;5023043;28;20869;-74
2024/03/05 02:20:27;;;;;;;;;;;6.00;97.10;;;;;;5005499;28;19997;-74
2024/03/05 02:22:53;;;;;;;;;;;6.00;97.20;;;;;;5023711;28;19993;-73
2024/03/05 02:25:20;;;;;;;;;;;6.00;97.50;;;;;;5022567;28;20000;-74
2024/03/05 02:27:46;;;;;;;;;;;6.10;97.30;;;;;;5023321;28;20133;-76
2024/03/05 02:30:12;;;;;;;;;;;6.10;97.30;;;;;;5023512;28;20068;-74
2024/03/05 02:32:42;;;;;;;;;;;6.20;97.40;;;;;;5022656;28;19989;-74
2024/03/05 02:35:08;;;;;;;;;;;6.20;97.40;;;;;;5023207;28;19989;-74
2024/03/05 02:37:39;;;;;;;;;;;6.20;97.30;;;;;;5023233;28;19990;-74
2024/03/05 02:40:14;;;;;;;;;;;6.20;97.30;;;;;;5022186;28;20103;-76
2024/03/05 02:42:40;;;;;;;;;;;6.20;97.20;;;;;;5019359;28;20001;-74
2024/03/05 02:45:07;;;;;;;;;;;6.20;97.40;;;;;;5023290;28;19994;-75
2024/03/05 02:47:41;;;;;;;;;;;6.30;97.50;;;;;;5022612;28;20120;-76
2024/03/05 02:50:10;;;;;;;;;;;6.30;97.50;;;;;;5022247;28;19989;-75
2024/03/05 02:52:36;;;;;;;;;;;6.20;97.70;;;;;;5022782;28;20536;-74
2024/03/05 02:55:02;;;;;;;;;;;6.20;98.10;;;;;;5022095;28;20097;-74
2024/03/05 02:57:31;;;;;;;;;;;6.30;98.10;;;;;;5022265;28;20378;-74
2024/03/05 02:59:57;;;;;;;;;;;6.20;98.50;;;;;;5023693;28;20000;-76
2024/03/05 03:02:22;;;;;;;;;;;6.30;98.50;;;;;;5022582;28;20088;-76
2024/03/05 03:04:51;;;;;;;;;;;6.20;98.50;;;;;;5022911;28;20459;-75
2024/03/05 03:07:17;;;;;;;;;;;6.30;98.40;;;;;;5022190;28;20140;-78
2024/03/05 03:09:46;;;;;;;;;;;6.40;98.40;;;;;;5021288;28;20116;-75
2024/03/05 03:12:11;;;;;;;;;;;6.30;98.90;;;;;;5022364;28;20000;-76
2024/03/05 03:14:40;;;;;;;;;;;6.30;99.00;;;;;;5022091;28;20449;-76
2024/03/05 03:17:05;;;;;;;;;;;6.30;99.00;;;;;;5018201;28;20776;-78
2024/03/05 03:19:31;;;;;;;;;;;6.30;99.10;;;;;;5021067;28;19990;-75
2024/03/05 03:21:57;;;;;;;;;;;6.40;99.20;;;;;;5026937;28;19990;-76
2024/03/05 03:24:22;;;;;;;;;;;6.30;99.40;;;;;;5022269;28;20108;-78
2024/03/05 03:26:50;;;;;;;;;;;6.30;99.70;;;;;;5021901;28;20056;-74
2024/03/05 03:29:16;;;;;;;;;;;6.30;99.90;;;;;;5022049;28;20542;-76
2024/03/05 03:31:47;;;;;;;;;;;6.30;99.90;;;;;;5022166;28;20045;-76
2024/03/05 03:34:16;;;;;;;;;;;6.30;99.90;;;;;;5014634;28;20500;-73
2024/03/05 03:36:42;;;;;;;;;;;6.30;99.90;;;;;;5021379;28;20536;-76
2024/03/05 03:39:10;;;;;;;;;;;6.40;99.90;;;;;;5021703;28;19993;-73
2024/03/05 03:41:39;;;;;;;;;;;6.40;99.90;;;;;;5021707;28;19997;-79
2024/03/05 03:44:06;;;;;;;;;;;6.40;99.90;;;;;;5016299;28;20001;-74
2024/03/05 03:46:35;;;;;;;;;;;6.50;99.90;;;;;;5003263;28;20399;-76
2024/03/05 03:49:07;;;;;;;;;;;6.50;99.90;;;;;;5021732;28;20004;-73
2024/03/05 03:51:33;;;;;;;;;;;6.50;99.90;;;;;;5023073;28;20100;-74
2024/03/05 03:53:59;;;;;;;;;;;6.50;99.90;;;;;;5025408;28;20460;-73
2024/03/05 03:56:25;;;;;;;;;;;6.40;99.90;;;;;;5025576;28;19994;-74
2024/03/05 03:58:50;;;;;;;;;;;6.50;99.90;;;;;;5025780;28;20001;-74
2024/03/05 04:01:18;;;;;;;;;;;6.50;99.90;;;;;;5025806;28;20536;-74
2024/03/05 04:03:43;;;;;;;;;;;6.60;99.90;;;;;;5025878;28;20001;-73
2024/03/05 04:06:09;;;;;;;;;;;6.50;99.90;;;;;;5025706;28;19990;-74
2024/03/05 04:08:35;;;;;;;;;;;6.50;99.90;;;;;;5016583;28;20013;-73
2024/03/05 04:11:01;;;;;;;;;;;6.50;99.90;;;;;;5025175;28;20622;-75
2024/03/05 04:13:27;;;;;;;;;;;6.50;99.90;;;;;;5025081;28;19997;-75
2024/03/05 04:15:53;;;;;;;;;;;6.50;99.90;;;;;;5025121;28;19998;-75
2024/03/05 04:18:21;;;;;;;;;;;6.40;99.90;;;;;;5025174;28;20000;-75
2024/03/05 04:20:46;;;;;;;;;;;6.50;99.90;;;;;;5025727;28;19989;-75
2024/03/05 04:23:12;;;;;;;;;;;6.50;99.90;;;;;;5025063;28;20004;-74
2024/03/05 04:25:39;;;;;;;;;;;6.50;99.90;;;;;;5025041;28;19996;-76
2024/03/05 04:28:10;;;;;;;;;;;6.50;99.90;;;;;;5025079;28;20544;-75
2024/03/05 04:30:37;;;;;;;;;;;6.40;99.90;;;;;;5025427;28;19996;-74
2024/03/05 04:33:09;;;;;;;;;;;6.40;99.90;;;;;;5025056;28;19994;-75
2024/03/05 04:35:37;;;;;;;;;;;6.30;99.90;;;;;;5025128;28;20020;-74
2024/03/05 04:38:05;;;;;;;;;;;6.40;99.90;;;;;;5024340;28;19993;-79
2024/03/05 04:40:33;;;;;;;;;;;6.40;99.90;;;;;;5017608;28;20433;-73
2024/03/05 04:42:59;;;;;;;;;;;6.40;99.90;;;;;;5025145;28;19996;-75
2024/03/05 04:45:25;;;;;;;;;;;6.50;99.90;;;;;;5025173;28;19994;-74
2024/03/05 04:47:51;;;;;;;;;;;6.50;99.90;;;;;;5025010;28;20060;-74
2024/03/05 04:50:17;;;;;;;;;;;6.40;99.90;;;;;;5023930;28;19993;-76
2024/03/05 04:52:43;;;;;;;;;;;6.40;99.90;;;;;;5025036;28;20045;-73
2024/03/05 04:55:09;;;;;;;;;;;6.40;99.90;;;;;;5023958;28;19989;-76
2024/03/05 04:57:35;;;;;;;;;;;6.40;99.90;;;;;;5024647;28;19989;-75
2024/03/05 05:00:01;;;;;;;;;;;6.40;99.90;;;;;;5025229;28;20000;-75
2024/03/05 05:02:26;;;;;;;;;;;6.40;99.90;;;;;;5023696;28;19993;-79
2024/03/05 05:04:52;;;;;;;;;;;6.40;99.90;;;;;;5006677;28;19997;-76
2024/03/05 05:07:23;;;;;;;;;;;6.40;99.90;;;;;;5024622;28;20067;-74
2024/03/05 05:09:49;;;;;;;;;;;6.40;99.90;;;;;;5024102;28;20030;-74
2024/03/05 05:12:14;;;;;;;;;;;6.40;99.90;;;;;;5024630;28;20001;-74
2024/03/05 05:14:40;;;;;;;;;;;6.40;99.90;;;;;;5024652;28;19997;-75
2024/03/05 05:17:05;;;;;;;;;;;6.40;99.90;;;;;;5023525;28;19993;-77
2024/03/05 05:19:31;;;;;;;;;;;6.30;99.90;;;;;;5024663;28;20001;-76
2024/03/05 05:21:57;;;;;;;;;;;6.40;99.90;;;;;;5024576;28;20000;-77
2024/03/05 05:24:23;;;;;;;;;;;6.40;99.90;;;;;;5024342;28;20416;-74
2024/03/05 05:26:49;;;;;;;;;;;6.40;99.90;;;;;;5024141;28;19994;-77
2024/03/05 05:29:14;;;;;;;;;;;6.40;99.90;;;;;;5024349;28;19994;-76
2024/03/05 05:31:40;;;;;;;;;;;6.20;99.90;;;;;;5023804;28;20689;-75
2024/03/05 05:34:05;;;;;;;;;;;6.30;99.90;;;;;;5024724;28;19989;-75
2024/03/05 05:36:31;;;;;;;;;;;6.30;99.90;;;;;;5024147;28;20017;-77
2024/03/05 05:38:58;;;;;;;;;;;6.10;99.90;;;;;;5024045;28;19989;-76
2024/03/05 05:41:24;;;;;;;;;;;6.10;99.90;;;;;;5006212;28;20354;-76
2024/03/05 05:43:50;;;;;;;;;;;5.90;99.90;;;;;;5024187;28;20009;-76
2024/03/05 05:46:17;;;;;;;;;;;5.80;99.90;;;;;;5024015;28;20001;-74
2024/03/05 05:48:43;;;;;;;;;;;5.70;99.90;;;;;;5024061;28;20488;-73
2024/03/05 05:51:11;;;;;;;;;;;5.50;99.90;;;;;;5023372;28;19990;-74
2024/03/05 05:53:37;;;;;;;;;;;5.30;99.90;;;;;;5022780;28;19990;-76
2024/03/05 05:56:05;;;;;;;;;;;5.40;99.90;;;;;;5023671;28;19993;-73
2024/03/05 05:58:30;;;;;;;;;;;5.30;99.90;;;;;;5024259;28;19990;-73
2024/03/05 06:00:56;;;;;;;;;;;5.10;99.90;;;;;;5023961;28;20000;-73
2024/03/05 06:03:22;;;;;;;;;;;5.10;99.90;;;;;;5023983;28;20108;-72
2024/03/05 06:05:48;;;;;;;;;;;5.20;99.90;;;;;;5023837;28;20012;-72
2024/03/05 06:08:14;;;;;;;;;;;5.10;99.90;;;;;;5022891;28;20009;-73
2024/03/05 06:10:43;;;;;;;;;;;5.00;99.90;;;;;;5022944;28;20630;-71
2024/03/05 06:13:09;;;;;;;;;;;4.90;99.90;;;;;;5020098;28;20524;-72
2024/03/05 06:15:38;;;;;;;;;;;4.90;99.90;;;;;;5022119;28;20515;-71
2024/03/05 06:18:05;;;;;;;;;;;5.00;99.90;;;;;;5022992;28;19990;-71
2024/03/05 06:20:31;;;;;;;;;;;4.90;99.90;;;;;;5005111;28;19994;-73
2024/03/05 06:22:58;;;;;;;;;;;5.10;99.90;;;;;;5022976;28;19997;-76
2024/03/05 06:25:24;;;;;;;;;;;5.00;99.90;;;;;;5023032;28;20064;-73
2024/03/05 06:27:50;;;;;;;;;;;5.00;99.90;;;;;;5022943;28;20057;-73
2024/03/05 06:30:17;;;;;;;;;;;5.00;99.90;;;;;;5022760;28;20001;-76
2024/03/05 06:32:47;;;;;;;;;;;4.70;99.90;;;;;;5023198;28;19994;-73
2024/03/05 06:35:16;;;;;;;;;;;4.70;99.90;;;;;;5023415;28;19994;-74
2024/03/05 06:37:46;;;;;;;;;;;4.70;99.90;;;;;;5023628;28;19993;-73
2024/03/05 06:40:12;;;;;;;;;;;4.90;99.90;;;;;;5005495;28;20818;-74
2024/03/05 06:42:41;;;;;;;;;;;5.00;99.90;;;;;;5022900;28;20087;-74
2024/03/05 06:45:07;;;;;;;;;;;5.10;99.90;;;;;;5023421;28;20076;-75
2024/03/05 06:47:43;;;;;;;;;;;5.20;99.90;;;;;;5005011;28;20694;-73
2024/03/05 06:50:19;;;;;;;;;;;5.10;99.90;;;;;;5019456;28;19989;-75
2024/03/05 06:58:15;;;;;;;;;;;5.20;99.90;;;;;;5023019;28;21431;-73
2024/03/05 07:00:41;;;;;;;;;;;5.10;99.90;;;;;;5022917;28;20080;-73
2024/03/05 07:03:06;;;;;;;;;;;5.00;99.90;;;;;;5022628;28;19994;-73
2024/03/05 07:05:32;;;;;;;;;;;5.10;99.90;;;;;;5023186;28;20076;-73
2024/03/05 07:07:59;;;;;;;;;;;5.20;99.90;;;;;;5022489;28;20010;-72
2024/03/05 07:10:24;;;;;;;;;;;5.30;99.90;;;;;;5022929;28;20519;-74
2024/03/05 07:12:51;;;;;;;;;;;5.10;99.90;;;;;;5022293;28;20000;-74
2024/03/05 07:15:17;;;;;;;;;;;5.00;99.90;;;;;;5022563;28;20728;-74
2024/03/05 07:17:43;;;;;;;;;;;4.90;99.90;;;;;;5018491;28;20032;-74
2024/03/05 07:20:27;;;;;;;;;;;5.00;99.90;;;;;;5024644;28;19989;-76
2024/03/05 07:22:54;;;;;;;;;;;5.30;99.90;;;;;;5025773;28;20021;-74
2024/03/05 07:25:21;;;;;;;;;;;5.80;99.90;;;;;;5024778;28;19992;-74
2024/03/05 07:27:47;;;;;;;;;;;6.40;99.90;;;;;;5024497;28;20371;-76
2024/03/05 07:30:15;;;;;;;;;;;6.90;99.90;;;;;;5022486;28;20465;-73
2024/03/05 07:32:47;;;;;;;;;;;6.40;99.90;;;;;;5004253;28;19993;-76
2024/03/05 07:35:17;;;;;;;;;;;6.40;99.90;;;;;;5022787;28;19990;-73
2024/03/05 07:37:45;;;;;;;;;;;6.40;99.90;;;;;;5022273;28;19990;-73
2024/03/05 07:40:16;;;;;;;;;;;6.50;99.90;;;;;;5022253;28;20638;-75
2024/03/05 07:42:53;;;;;;;;;;;6.80;99.90;;;;;;5018125;28;20749;-76
2024/03/05 07:45:19;;;;;;;;;;;6.90;99.90;;;;;;5020448;28;20064;-74
2024/03/05 07:47:45;;;;;;;;;;;8.40;99.90;;;;;;5019135;28;20010;-77
2024/03/05 07:50:14;;;;;;;;;;;8.80;99.20;;;;;;5022240;28;19990;-74
2024/03/05 07:52:42;;;;;;;;;;;7.90;97.60;;;;;;5004328;28;20010;-75
2024/03/05 07:55:09;;;;;;;;;;;7.40;98.90;;;;;;5021894;28;20650;-75
2024/03/05 07:57:37;;;;;;;;;;;7.90;99.80;;;;;;5022216;28;19997;-73
2024/03/05 08:00:08;;;;;;;;;;;7.80;98.10;;;;;;5005878;28;19994;-74
2024/03/05 08:02:40;;;;;;;;;;;7.30;99.30;;;;;;5022178;28;20119;-74
2024/03/05 08:05:06;;;;;;;;;;;6.80;99.10;;;;;;5015343;28;20760;-75
2024/03/05 08:07:35;;;;;;;;;;;6.50;99.90;;;;;;5021884;28;20006;-73
2024/03/05 08:10:07;;;;;;;;;;;6.40;99.90;;;;;;5021397;28;20028;-73
2024/03/05 08:12:43;;;;;;;;;;;6.10;99.90;;;;;;5022133;28;19997;-73
2024/03/05 08:15:18;;;;;;;;;;;6.00;99.90;;;;;;5014980;28;19994;-73
2024/03/05 08:17:46;;;;;;;;;;;6.00;99.90;;;;;;5017955;28;19985;-73
2024/03/05 08:20:15;;;;;;;;;;;5.90;99.90;;;;;;5022619;28;19989;-74
2024/03/05 08:22:42;;;;;;;;;;;6.00;99.90;;;;;;5021730;28;20012;-74
2024/03/05 08:25:12;;;;;;;;;;;6.00;99.90;;;;;;5023385;28;19990;-75
2024/03/05 08:27:38;;;;;;;;;;;6.10;99.90;;;;;;4993714;28;20520;-74
2024/03/05 08:30:08;;;;;;;;;;;6.40;99.90;;;;;;5022151;28;19994;-73
2024/03/05 08:32:34;;;;;;;;;;;6.80;99.90;;;;;;5011775;28;20001;-74
2024/03/05 08:34:59;;;;;;;;;;;7.20;99.70;;;;;;5021870;28;20081;-73
2024/03/05 08:37:25;;;;;;;;;;;6.80;98.00;;;;;;5012385;28;20084;-73
2024/03/05 08:39:51;;;;;;;;;;;6.60;99.60;;;;;;5025802;28;19998;-76
2024/03/05 08:42:16;;;;;;;;;;;6.40;99.60;;;;;;5025738;28;20039;-75
2024/03/05 08:44:42;;;;;;;;;;;6.30;99.70;;;;;;5025875;28;19997;-73
2024/03/05 08:47:08;;;;;;;;;;;6.20;99.90;;;;;;5025650;28;20017;-74
2024/03/05 08:49:33;;;;;;;;;;;6.30;99.90;;;;;;5025394;28;20872;-73
2024/03/05 08:52:03;;;;;;;;;;;6.30;99.90;;;;;;5025498;28;19989;-75
2024/03/05 08:54:30;;;;;;;;;;;6.30;99.90;;;;;;5025029;28;19990;-73
2024/03/05 08:56:59;;;;;;;;;;;6.40;99.90;;;;;;5025744;28;20158;-74
2024/03/05 08:59:27;;;;;;;;;;;6.20;99.90;;;;;;5027207;28;19996;-75
2024/03/05 09:01:53;;;;;;;;;;;6.70;99.90;;;;;;5025131;28;20037;-76
2024/03/05 09:04:23;;;;;;;;;;;6.90;99.90;;;;;;5025114;28;19986;-74
2024/03/05 09:06:49;;;;;;;;;;;7.10;99.90;;;;;;5025608;28;19989;-74
2024/03/05 09:09:16;;;;;;;;;;;7.40;98.70;;;;;;5024497;28;20022;-73
2024/03/05 09:11:41;;;;;;;;;;;7.40;97.50;;;;;;5024393;28;20390;-75
2024/03/05 09:14:08;;;;;;;;;;;7.40;97.40;;;;;;5025179;28;20528;-77
2024/03/05 09:16:34;;;;;;;;;;;7.20;98.50;;;;;;5024676;28;19993;-74
2024/03/05 09:18:59;;;;;;;;;;;7.00;98.70;;;;;;5024074;28;19996;-76
2024/03/05 09:21:25;;;;;;;;;;;7.10;99.40;;;;;;5024720;28;20753;-74
2024/03/05 09:23:50;;;;;;;;;;;7.40;99.30;;;;;;5024630;28;20085;-75
2024/03/05 09:26:16;;;;;;;;;;;8.60;96.40;;;;;;5026589;28;19990;-76
2024/03/05 09:28:41;;;;;;;;;;;8.70;95.20;;;;;;5024362;28;20075;-75
2024/03/05 09:31:07;;;;;;;;;;;7.90;95.50;;;;;;5024799;28;19990;-76
2024/03/05 09:33:33;;;;;;;;;;;7.60;96.90;;;;;;5024944;28;19994;-73
2024/03/05 09:35:58;;;;;;;;;;;7.20;97.30;;;;;;5024758;28;20467;-74
2024/03/05 09:38:24;;;;;;;;;;;7.00;98.60;;;;;;5006695;28;20005;-74
2024/03/05 09:40:51;;;;;;;;;;;6.90;98.70;;;;;;5024395;28;20132;-74
2024/03/05 09:43:19;;;;;;;;;;;7.00;99.50;;;;;;5024156;28;20104;-75
2024/03/05 09:45:47;;;;;;;;;;;7.80;97.50;;;;;;5024454;28;19997;-74
2024/03/05 09:48:17;;;;;;;;;;;8.20;96.30;;;;;;5024343;28;20020;-74
2024/03/05 09:50:43;;;;;;;;;;;8.30;95.40;;;;;;5024485;28;19993;-74
2024/03/05 09:53:12;;;;;;;;;;;7.80;95.30;;;;;;5023568;28;20073;-74
2024/03/05 09:55:37;;;;;;;;;;;7.40;96.00;;;;;;5024019;28;19998;-77
2024/03/05 09:58:08;;;;;;;;;;;7.50;96.20;;;;;;5024733;28;20040;-74
2024/03/05 10:00:34;;;;;;;;;;;7.50;97.00;;;;;;5023975;28;20427;-73
2024/03/05 10:03:00;;;;;;;;;;;7.40;96.50;;;;;;5024032;28;19990;-75
2024/03/05 10:05:26;;;;;;;;;;;7.30;97.30;;;;;;5024040;28;20092;-75
2024/03/05 10:07:51;;;;;;;;;;;7.50;97.40;;;;;;5005917;28;20094;-75
2024/03/05 10:10:18;;;;;;;;;;;8.10;96.70;;;;;;5023542;28;20044;-78
2024/03/05 10:12:43;;;;;;;;;;;9.80;94.90;;;;;;5024065;28;20029;-74
2024/03/05 10:15:22;;;;;;;;;;;9.10;93.00;;;;;;5024227;28;20861;-73
2024/03/05 10:17:49;;;;;;;;;;;8.80;95.10;;;;;;5023071;28;19993;-75
2024/03/05 10:20:36;;;;;;;;;;;8.70;93.70;;;;;;5023793;28;19997;-74
2024/03/05 10:23:03;;;;;;;;;;;8.60;94.00;;;;;;5023428;28;19996;-74
2024/03/05 10:25:30;;;;;;;;;;;8.50;93.90;;;;;;5025422;28;20001;-75
2024/03/05 10:27:56;;;;;;;;;;;8.90;93.30;;;;;;5023552;28;20009;-76
2024/03/05 10:30:23;;;;;;;;;;;9.30;93.30;;;;;;5023802;28;19990;-75
2024/03/05 10:32:56;;;;;;;;;;;9.80;92.00;;;;;;5023455;28;20039;-74
2024/03/05 10:35:22;;;;;;;;;;;10.30;92.80;;;;;;5021367;28;20111;-74
2024/03/05 10:37:54;;;;;;;;;;;10.50;91.60;;;;;;5023078;28;20000;-75
2024/03/05 10:40:20;;;;;;;;;;;10.90;90.30;;;;;;5023112;28;19990;-73
2024/03/05 10:42:47;;;;;;;;;;;10.20;89.20;;;;;;5023060;28;19994;-75
2024/03/05 10:45:13;;;;;;;;;;;9.60;88.50;;;;;;5023454;28;19994;-75
2024/03/05 10:47:39;;;;;;;;;;;10.40;87.60;;;;;;5023391;28;20017;-74
2024/03/05 10:50:05;;;;;;;;;;;11.30;86.30;;;;;;5023528;28;19990;-74
2024/03/05 10:52:33;;;;;;;;;;;11.60;86.60;;;;;;5023160;28;19986;-73
2024/03/05 10:55:00;;;;;;;;;;;11.30;86.70;;;;;;5000102;28;20000;-75
2024/03/05 10:57:28;;;;;;;;;;;11.10;87.90;;;;;;5023078;28;19997;-74
2024/03/05 10:59:54;;;;;;;;;;;11.80;86.30;;;;;;5024189;28;20100;-75
2024/03/05 11:02:25;;;;;;;;;;;11.40;84.80;;;;;;5022283;28;20050;-75
2024/03/05 11:04:53;;;;;;;;;;;11.10;87.10;;;;;;5022934;28;19990;-74
2024/03/05 11:07:19;;;;;;;;;;;10.80;88.30;;;;;;5022366;28;20729;-74
2024/03/05 11:09:45;;;;;;;;;;;10.40;87.60;;;;;;5022044;28;20021;-76
2024/03/05 11:12:13;;;;;;;;;;;9.90;88.00;;;;;;5022002;28;20428;-74
2024/03/05 11:14:39;;;;;;;;;;;9.40;87.50;;;;;;5022612;28;20744;-75
2024/03/05 11:17:09;;;;;;;;;;;9.80;89.70;;;;;;5022274;28;19997;-74
2024/03/05 11:19:42;;;;;;;;;;;10.00;90.40;;;;;;5022957;28;20420;-75
2024/03/05 11:22:24;;;;;;;;;;;9.90;90.10;;;;;;5022003;28;20036;-76
2024/03/05 11:24:51;;;;;;;;;;;9.70;87.90;;;;;;5024069;28;20400;-76
2024/03/05 11:27:22;;;;;;;;;;;9.80;90.00;;;;;;5022187;28;20482;-75
2024/03/05 11:29:48;;;;;;;;;;;10.30;88.30;;;;;;5022443;28;19990;-75
2024/03/05 11:32:14;;;;;;;;;;;10.50;86.90;;;;;;5022346;28;20550;-74
2024/03/05 11:34:46;;;;;;;;;;;10.80;84.20;;;;;;5022065;28;19990;-76
2024/03/05 11:37:15;;;;;;;;;;;10.30;83.10;;;;;;5022327;28;19998;-74
2024/03/05 11:39:43;;;;;;;;;;;10.40;82.90;;;;;;5021946;28;20036;-77
2024/03/05 11:42:17;;;;;;;;;;;10.50;82.00;;;;;;5022256;28;19989;-74
2024/03/05 11:44:49;;;;;;;;;;;10.40;81.70;;;;;;5022147;28;20759;-75
2024/03/05 11:47:18;;;;;;;;;;;10.20;81.20;;;;;;5013951;28;20121;-74
2024/03/05 11:49:44;;;;;;;;;;;9.70;80.00;;;;;;5022324;28;20082;-75
2024/03/05 11:52:10;;;;;;;;;;;9.90;81.10;;;;;;5022220;28;20071;-75
2024/03/05 11:54:35;;;;;;;;;;;10.10;80.80;;;;;;5022763;28;20064;-75
2024/03/05 11:57:03;;;;;;;;;;;10.00;79.30;;;;;;5004481;28;20040;-76
2024/03/05 11:59:34;;;;;;;;;;;9.90;80.50;;;;;;5024454;28;19990;-75
2024/03/05 12:02:00;;;;;;;;;;;10.40;78.70;;;;;;5022192;28;20087;-73
2024/03/05 12:04:26;;;;;;;;;;;10.80;77.90;;;;;;5022442;28;20363;-74
2024/03/05 12:07:06;;;;;;;;;;;10.70;76.50;;;;;;5022244;28;20338;-77
2024/03/05 12:09:32;;;;;;;;;;;10.80;78.20;;;;;;5015808;28;20472;-74
2024/03/05 12:12:02;;;;;;;;;;;11.10;77.40;;;;;;5022646;28;19998;-77
2024/03/05 12:14:29;;;;;;;;;;;11.10;77.00;;;;;;5025029;28;19990;-77
2024/03/05 12:16:56;;;;;;;;;;;11.50;78.60;;;;;;5025650;28;20060;-74
2024/03/05 12:19:22;;;;;;;;;;;11.10;74.20;;;;;;5025839;28;20751;-76
2024/03/05 12:21:47;;;;;;;;;;;10.80;74.80;;;;;;5007754;28;20001;-77
2024/03/05 12:24:13;;;;;;;;;;;10.30;72.10;;;;;;5026023;28;19989;-74
2024/03/05 12:26:39;;;;;;;;;;;10.00;73.10;;;;;;5028204;28;19990;-76
2024/03/05 12:29:06;;;;;;;;;;;9.80;79.00;;;;;;5026035;28;20101;-74
2024/03/05 12:31:32;;;;;;;;;;;9.10;80.10;;;;;;5025788;28;19989;-74
2024/03/05 12:33:58;;;;;;;;;;;8.80;81.60;;;;;;5026379;28;20411;-76
2024/03/05 12:36:23;;;;;;;;;;;9.60;81.10;;;;;;5025984;28;19994;-74
2024/03/05 12:38:49;;;;;;;;;;;10.10;78.60;;;;;;5025778;28;19985;-75
2024/03/05 12:41:19;;;;;;;;;;;10.60;78.00;;;;;;5025649;28;19990;-75
2024/03/05 12:43:51;;;;;;;;;;;10.80;76.80;;;;;;5025720;28;20075;-77
2024/03/05 12:46:19;;;;;;;;;;;10.50;75.90;;;;;;5025293;28;20827;-77
2024/03/05 12:48:44;;;;;;;;;;;10.10;75.50;;;;;;5024990;28;20049;-75
2024/03/05 12:51:11;;;;;;;;;;;9.60;77.40;;;;;;5025007;28;20078;-73
2024/03/05 12:53:37;;;;;;;;;;;9.30;77.60;;;;;;5024823;28;19990;-75
2024/03/05 12:56:03;;;;;;;;;;;9.30;77.20;;;;;;5025363;28;20437;-75
2024/03/05 12:58:41;;;;;;;;;;;9.20;78.30;;;;;;5026939;28;19995;-74
2024/03/05 13:01:06;;;;;;;;;;;8.80;78.90;;;;;;5024820;28;19990;-77
2024/03/05 13:03:32;;;;;;;;;;;8.10;80.40;;;;;;5025060;28;19990;-73
2024/03/05 13:05:57;;;;;;;;;;;7.60;87.20;;;;;;5007199;28;20408;-76
2024/03/05 13:08:23;;;;;;;;;;;7.30;89.20;;;;;;5024341;28;20014;-75
2024/03/05 13:10:49;;;;;;;;;;;7.80;92.30;;;;;;5006725;28;20029;-73
2024/03/05 13:13:14;;;;;;;;;;;8.50;90.60;;;;;;5024514;28;20001;-74
2024/03/05 13:15:40;;;;;;;;;;;9.30;90.80;;;;;;5024998;28;19990;-76
2024/03/05 13:18:05;;;;;;;;;;;9.50;91.10;;;;;;5024144;28;19989;-74
2024/03/05 13:20:32;;;;;;;;;;;9.10;90.10;;;;;;5024385;28;19989;-75
2024/03/05 13:22:57;;;;;;;;;;;9.20;89.60;;;;;;5024972;28;19997;-75
2024/03/05 13:25:26;;;;;;;;;;;8.80;86.20;;;;;;5025970;28;19989;-74
2024/03/05 13:27:51;;;;;;;;;;;9.10;83.30;;;;;;5025153;28;20265;-76
2024/03/05 13:30:19;;;;;;;;;;;9.70;83.40;;;;;;5024791;28;20743;-76
2024/03/05 13:32:48;;;;;;;;;;;9.90;83.20;;;;;;5024958;28;20013;-74
2024/03/05 13:35:14;;;;;;;;;;;9.60;80.40;;;;;;5024450;28;20465;-73
2024/03/05 13:37:40;;;;;;;;;;;9.80;81.50;;;;;;5024330;28;19994;-75
2024/03/05 13:40:06;;;;;;;;;;;10.00;80.80;;;;;;5024575;28;20024;-74
2024/03/05 13:42:35;;;;;;;;;;;9.70;80.70;;;;;;5024450;28;19990;-76
2024/03/05 13:45:12;;;;;;;;;;;9.70;81.50;;;;;;5024450;28;20036;-74
2024/03/05 13:47:38;;;;;;;;;;;9.40;78.40;;;;;;5024070;28;20009;-76
2024/03/05 13:50:10;;;;;;;;;;;9.90;81.00;;;;;;5024275;28;19990;-74
2024/03/05 13:52:38;;;;;;;;;;;10.10;79.10;;;;;;5024213;28;19990;-74
2024/03/05 13:55:04;;;;;;;;;;;9.80;77.30;;;;;;5024282;28;20179;-77
2024/03/05 13:57:30;;;;;;;;;;;9.70;76.90;;;;;;5024224;28;19989;-74
2024/03/05 13:59:55;;;;;;;;;;;9.60;75.30;;;;;;5025180;28;19990;-73
2024/03/05 14:02:21;;;;;;;;;;;9.90;79.70;;;;;;5024248;28;19990;-77
2024/03/05 14:04:46;;;;;;;;;;;9.90;78.70;;;;;;5024449;28;19993;-76
2024/03/05 14:07:15;;;;;;;;;;;9.90;76.60;;;;;;5023971;28;19990;-75
2024/03/05 14:09:43;;;;;;;;;;;9.90;77.70;;;;;;5023117;28;20025;-73
2024/03/05 14:12:10;;;;;;;;;;;9.30;78.70;;;;;;5023905;28;19997;-77
2024/03/05 14:14:35;;;;;;;;;;;8.60;80.30;;;;;;5023773;28;19997;-74
2024/03/05 14:17:01;;;;;;;;;;;8.70;80.30;;;;;;5023500;28;19989;-74
2024/03/05 14:19:27;;;;;;;;;;;8.60;81.30;;;;;;5023988;28;19997;-75
2024/03/05 14:21:52;;;;;;;;;;;8.80;80.10;;;;;;5005798;28;19997;-74
2024/03/05 14:24:18;;;;;;;;;;;8.70;80.30;;;;;;5018373;28;19990;-74
2024/03/05 14:26:44;;;;;;;;;;;8.80;79.00;;;;;;5023887;28;19996;-75
2024/03/05 14:29:09;;;;;;;;;;;9.00;80.30;;;;;;5024102;28;20428;-76
2024/03/05 14:31:35;;;;;;;;;;;9.50;80.20;;;;;;5023733;28;19994;-74
2024/03/05 14:34:00;;;;;;;;;;;9.40;80.80;;;;;;5024143;28;20089;-73